createdAt,value
2019-02-10T00:00:01.391Z,89.56
2019-02-10T00:01:01.373Z,90.14
2019-02-10T00:02:01.373Z,90.04
2019-02-10T00:03:01.373Z,90.23
2019-02-10T00:04:01.377Z,90.89
2019-02-10T00:05:01.357Z,90.89
2019-02-10T00:06:01.349Z,91.08
2019-02-10T00:07:01.339Z,91.08
2019-02-10T00:08:01.330Z,90.80
2019-02-10T00:09:01.325Z,90.99
2019-02-10T00:10:01.331Z,91.37
2019-02-10T00:11:01.317Z,91.47
2019-02-10T00:12:01.307Z,91.18
2019-02-10T00:13:01.311Z,91.18
2019-02-10T00:14:01.297Z,91.47
2019-02-10T00:15:01.283Z,91.66
2019-02-10T00:16:01.278Z,91.37
2019-02-10T00:17:01.276Z,91.66
2019-02-10T00:18:01.259Z,91.37
2019-02-10T00:19:01.264Z,91.47
2019-02-10T00:20:01.244Z,91.56
2019-02-10T00:21:01.238Z,91.56
2019-02-10T00:22:01.232Z,91.18
2019-02-10T00:23:01.231Z,91.18
2019-02-10T00:24:01.225Z,91.28
2019-02-10T00:25:01.208Z,91.47
2019-02-10T00:26:01.210Z,91.47
2019-02-10T00:27:01.208Z,91.37
2019-02-10T00:28:01.248Z,91.85
2019-02-10T00:29:01.189Z,92.27
2019-02-10T00:30:01.172Z,92.32
2019-02-10T00:31:01.167Z,92.18
2019-02-10T00:32:01.159Z,92.75
2019-02-10T00:33:01.171Z,92.46
2019-02-10T00:34:01.209Z,92.66
2019-02-10T00:35:01.142Z,92.61
2019-02-10T00:36:01.183Z,92.27
2019-02-10T00:37:01.119Z,92.13
2019-02-10T00:38:01.117Z,92.13
2019-02-10T00:39:01.113Z,91.89
2019-02-10T00:40:01.118Z,91.89
2019-02-10T00:41:01.112Z,92.18
2019-02-10T00:42:01.096Z,92.85
2019-02-10T00:43:01.115Z,93.04
2019-02-10T00:44:01.068Z,93.04
2019-02-10T00:45:01.067Z,93.32
2019-02-10T00:46:01.065Z,93.41
2019-02-10T00:47:01.054Z,93.41
2019-02-10T00:48:01.048Z,93.13
2019-02-10T00:49:01.033Z,93.41
2019-02-10T00:50:01.027Z,93.32
2019-02-10T00:51:01.021Z,93.51
2019-02-10T00:52:01.009Z,93.89
2019-02-10T00:53:01.007Z,93.99
2019-02-10T00:54:01.000Z,94.27
2019-02-10T00:55:00.988Z,94.46
2019-02-10T00:56:00.988Z,94.37
2019-02-10T00:57:00.976Z,95.41
2019-02-10T00:58:00.971Z,95.60
2019-02-10T00:59:00.965Z,95.12
2019-02-10T01:00:00.961Z,95.22
2019-02-10T01:01:00.951Z,94.37
2019-02-10T01:02:00.961Z,94.46
2019-02-10T01:03:00.929Z,93.89
2019-02-10T01:04:00.919Z,93.51
2019-02-10T01:05:01.061Z,93.32
2019-02-10T01:06:00.907Z,93.89
2019-02-10T01:07:00.906Z,92.94
2019-02-10T01:08:00.891Z,93.79
2019-02-10T01:09:00.893Z,93.89
2019-02-10T01:10:00.896Z,93.89
2019-02-10T01:11:00.869Z,93.70
2019-02-10T01:12:00.861Z,93.41
2019-02-10T01:13:00.857Z,94.27
2019-02-10T01:14:00.850Z,93.70
2019-02-10T01:15:00.855Z,93.32
2019-02-10T01:16:00.844Z,93.51
2019-02-10T01:17:00.841Z,93.13
2019-02-10T01:18:00.816Z,92.75
2019-02-10T01:19:00.807Z,92.75
2019-02-10T01:20:00.808Z,93.13
2019-02-10T01:21:00.795Z,93.79
2019-02-10T01:22:00.787Z,93.99
2019-02-10T01:23:00.783Z,93.70
2019-02-10T01:24:00.781Z,94.08
2019-02-10T01:25:00.781Z,93.89
2019-02-10T01:26:00.755Z,93.89
2019-02-10T01:27:00.747Z,93.51
2019-02-10T01:28:00.742Z,93.32
2019-02-10T01:29:00.727Z,93.70
2019-02-10T01:30:00.746Z,93.41
2019-02-10T01:31:00.729Z,93.89
2019-02-10T01:32:00.719Z,94.56
2019-02-10T01:33:00.765Z,94.37
2019-02-10T01:34:00.705Z,94.56
2019-02-10T01:35:00.694Z,94.27
2019-02-10T01:36:00.694Z,94.37
2019-02-10T01:37:00.683Z,93.99
2019-02-10T01:38:00.698Z,93.79
2019-02-10T01:39:00.659Z,93.79
2019-02-10T01:40:00.653Z,93.70
2019-02-10T01:41:00.649Z,93.32
2019-02-10T01:42:00.651Z,93.70
2019-02-10T01:43:00.639Z,94.65
2019-02-10T01:44:00.673Z,93.89
2019-02-10T01:45:00.726Z,94.08
2019-02-10T01:46:00.635Z,94.27
2019-02-10T01:47:00.613Z,94.56
2019-02-10T01:48:00.594Z,94.56
2019-02-10T01:49:00.615Z,94.65
2019-02-10T01:50:00.578Z,94.46
2019-02-10T01:51:00.591Z,94.46
2019-02-10T01:52:00.584Z,94.65
2019-02-10T01:53:00.555Z,95.03
2019-02-10T01:54:00.547Z,95.03
2019-02-10T01:55:00.535Z,94.65
2019-02-10T01:56:00.534Z,95.17
2019-02-10T01:57:00.520Z,95.36
2019-02-10T01:58:00.523Z,95.55
2019-02-10T01:59:00.516Z,95.65
2019-02-10T02:00:00.549Z,95.84
2019-02-10T02:01:00.488Z,95.94
2019-02-10T02:02:00.496Z,95.46
2019-02-10T02:03:00.476Z,95.46
2019-02-10T02:04:00.480Z,95.84
2019-02-10T02:05:00.473Z,96.12
2019-02-10T02:06:00.473Z,96.22
2019-02-10T02:07:00.478Z,96.41
2019-02-10T02:08:00.461Z,96.41
2019-02-10T02:09:00.438Z,96.12
2019-02-10T02:10:00.424Z,96.88
2019-02-10T02:11:00.431Z,96.79
2019-02-10T02:12:00.413Z,96.79
2019-02-10T02:13:00.410Z,97.07
2019-02-10T02:14:00.388Z,96.88
2019-02-10T02:15:00.382Z,96.88
2019-02-10T02:16:00.374Z,96.69
2019-02-10T02:17:00.390Z,96.69
2019-02-10T02:18:00.358Z,96.03
2019-02-10T02:19:00.376Z,95.94
2019-02-10T02:20:00.359Z,95.84
2019-02-10T02:21:00.335Z,96.22
2019-02-10T02:22:00.329Z,96.88
2019-02-10T02:23:00.323Z,96.60
2019-02-10T02:24:00.318Z,96.31
2019-02-10T02:25:00.332Z,96.31
2019-02-10T02:26:00.299Z,96.50
2019-02-10T02:27:00.310Z,96.79
2019-02-10T02:28:00.278Z,96.41
2019-02-10T02:29:00.292Z,96.50
2019-02-10T02:30:00.407Z,96.60
2019-02-10T02:31:00.248Z,96.79
2019-02-10T02:32:00.470Z,96.88
2019-02-10T02:33:00.247Z,96.79
2019-02-10T02:34:00.269Z,96.69
2019-02-10T02:35:00.224Z,96.79
2019-02-10T02:36:00.209Z,97.36
2019-02-10T02:37:07.578Z,97.17
2019-02-10T02:38:00.201Z,97.55
2019-02-10T02:39:00.204Z,97.55
2019-02-10T02:40:00.206Z,97.92
2019-02-10T02:41:00.166Z,97.92
2019-02-10T02:42:00.162Z,97.36
2019-02-10T02:43:00.160Z,97.45
2019-02-10T02:44:00.150Z,97.36
2019-02-10T02:45:00.390Z,97.27
2019-02-10T02:46:00.158Z,97.27
2019-02-10T02:47:00.137Z,97.27
2019-02-10T02:48:00.108Z,97.17
2019-02-10T02:49:00.104Z,96.88
2019-02-10T02:50:00.447Z,97.36
2019-02-10T02:51:01.024Z,97.27
2019-02-10T02:52:00.086Z,96.88
2019-02-10T02:53:00.077Z,96.60
2019-02-10T02:54:00.061Z,96.79
2019-02-10T02:55:00.117Z,97.07
2019-02-10T02:56:00.043Z,97.83
2019-02-10T02:57:00.045Z,97.64
2019-02-10T03:14:00.729Z,96.69
2019-02-10T03:15:00.685Z,96.69
2019-02-10T03:16:00.663Z,97.27
2019-02-10T03:17:00.647Z,97.45
2019-02-10T03:18:00.658Z,97.27
2019-02-10T03:19:00.634Z,97.55
2019-02-10T03:20:00.621Z,97.17
2019-02-10T03:21:00.610Z,97.36
2019-02-10T03:22:00.600Z,97.45
2019-02-10T03:23:00.594Z,97.27
2019-02-10T03:24:00.588Z,97.17
2019-02-10T03:25:00.594Z,97.27
2019-02-10T03:26:00.567Z,97.27
2019-02-10T03:27:00.582Z,97.64
2019-02-10T03:28:00.547Z,97.64
2019-02-10T03:29:00.526Z,98.12
2019-02-10T03:30:00.527Z,98.21
2019-02-10T03:31:00.517Z,98.40
2019-02-10T03:32:00.510Z,97.74
2019-02-10T03:33:00.508Z,98.31
2019-02-10T03:34:00.488Z,98.40
2019-02-10T03:35:00.484Z,98.79
2019-02-10T03:36:00.470Z,98.21
2019-02-10T03:37:00.471Z,97.36
2019-02-10T03:38:00.469Z,97.92
2019-02-10T03:39:00.444Z,97.92
2019-02-10T03:40:00.432Z,97.92
2019-02-10T03:41:00.435Z,98.21
2019-02-10T03:42:00.428Z,98.02
2019-02-10T03:43:00.410Z,98.21
2019-02-10T03:44:00.411Z,97.92
2019-02-10T03:45:00.397Z,98.21
2019-02-10T03:46:00.387Z,98.21
2019-02-10T03:47:00.426Z,98.21
2019-02-10T03:48:00.373Z,97.55
2019-02-10T03:49:00.374Z,97.45
2019-02-10T03:50:00.697Z,97.36
2019-02-10T03:51:00.346Z,96.98
2019-02-10T03:52:00.337Z,97.45
2019-02-10T03:53:00.335Z,97.64
2019-02-10T03:54:00.323Z,97.27
2019-02-10T03:55:00.433Z,96.88
2019-02-10T03:56:00.303Z,96.60
2019-02-10T03:57:00.304Z,96.60
2019-02-10T03:58:00.340Z,96.69
2019-02-10T03:59:00.279Z,97.17
2019-02-10T04:00:00.303Z,96.98
2019-02-10T04:01:00.267Z,97.45
2019-02-10T04:02:00.256Z,98.02
2019-02-10T04:03:00.256Z,98.12
2019-02-10T04:04:00.239Z,98.21
2019-02-10T04:05:00.275Z,97.92
2019-02-10T04:06:00.224Z,97.92
2019-02-10T04:07:00.219Z,98.12
2019-02-10T04:08:00.267Z,98.69
2019-02-10T04:09:00.262Z,98.97
2019-02-10T04:10:00.393Z,99.16
2019-02-10T04:11:00.203Z,98.88
2019-02-10T04:12:00.182Z,99.35
2019-02-10T04:13:00.236Z,99.99
2019-02-10T04:14:00.162Z,99.64
2019-02-10T04:15:00.279Z,99.44
2019-02-10T04:16:00.206Z,99.64
2019-02-10T04:17:00.146Z,99.54
2019-02-10T04:18:00.128Z,99.07
2019-02-10T04:19:00.121Z,99.35
2019-02-10T04:20:00.250Z,98.97
2019-02-10T04:21:00.135Z,98.50
2019-02-10T04:22:00.104Z,98.50
2019-02-10T04:23:00.245Z,98.21
2019-02-10T04:24:00.093Z,98.50
2019-02-10T04:25:00.090Z,98.50
2019-02-10T04:26:00.068Z,98.12
2019-02-10T04:27:00.051Z,98.21
2019-02-10T04:28:00.063Z,98.31
2019-02-10T04:29:00.049Z,98.40
2019-02-10T04:30:00.141Z,98.50
2019-02-10T04:31:00.042Z,99.16
2019-02-10T04:32:00.011Z,98.69
2019-02-10T04:33:00.057Z,98.97
2019-02-10T04:33:59.995Z,99.35
2019-02-10T04:34:59.991Z,99.44
2019-02-10T04:35:59.988Z,99.54
2019-02-10T04:36:59.970Z,99.83
2019-02-10T04:38:00.046Z,99.73
2019-02-10T04:38:59.952Z,99.92
2019-02-10T04:39:59.949Z,99.92
2019-02-10T04:40:59.942Z,99.16
2019-02-10T04:41:59.930Z,98.88
2019-02-10T04:42:59.957Z,98.69
2019-02-10T04:43:59.944Z,97.92
2019-02-10T04:44:59.912Z,98.31
2019-02-10T04:45:59.895Z,98.12
2019-02-10T04:46:59.890Z,98.26
2019-02-10T04:47:59.875Z,98.79
2019-02-10T04:48:59.887Z,98.50
2019-02-10T04:49:59.869Z,98.50
2019-02-10T04:50:59.886Z,98.59
2019-02-10T04:51:59.850Z,99.26
2019-02-10T04:52:59.838Z,99.44
2019-02-10T04:53:59.834Z,99.54
2019-02-10T04:54:59.855Z,99.35
2019-02-10T04:55:59.828Z,99.92
2019-02-10T04:56:59.827Z,99.64
2019-02-10T04:57:59.805Z,99.44
2019-02-10T04:58:59.791Z,99.44
2019-02-10T04:59:59.783Z,98.97
2019-02-10T05:00:59.774Z,98.59
2019-02-10T05:01:59.773Z,98.40
2019-02-10T05:02:59.768Z,98.88
2019-02-10T05:03:59.771Z,98.88
2019-02-10T05:04:59.750Z,99.07
2019-02-10T05:05:59.738Z,98.97
2019-02-10T05:06:59.728Z,98.59
2019-02-10T05:07:59.718Z,98.79
2019-02-10T05:08:59.711Z,99.07
2019-02-10T05:09:59.715Z,99.26
2019-02-10T05:10:59.711Z,98.97
2019-02-10T05:11:59.678Z,98.69
2019-02-10T05:12:59.678Z,98.79
2019-02-10T05:13:59.671Z,98.88
2019-02-10T05:14:59.670Z,98.97
2019-02-10T05:15:59.668Z,99.16
2019-02-10T05:16:59.659Z,98.69
2019-02-10T05:17:59.633Z,98.93
2019-02-10T05:18:59.633Z,98.45
2019-02-10T05:19:59.618Z,98.97
2019-02-10T05:20:59.616Z,98.50
2019-02-10T05:21:59.599Z,99.26
2019-02-10T05:22:59.601Z,99.26
2019-02-10T05:24:03.653Z,99.16
2019-02-10T05:24:59.616Z,98.59
2019-02-10T05:25:59.579Z,98.79
2019-02-10T05:26:59.567Z,98.59
2019-02-10T05:27:59.560Z,99.07
2019-02-10T05:28:59.560Z,98.88
2019-02-10T05:29:59.551Z,99.16
2019-02-10T05:30:59.544Z,98.97
2019-02-10T05:31:59.535Z,99.07
2019-02-10T05:32:59.516Z,99.35
2019-02-10T05:33:59.516Z,99.35
2019-02-10T05:34:59.503Z,99.44
2019-02-10T05:35:59.498Z,99.44
2019-02-10T05:36:59.503Z,99.54
2019-02-10T05:38:04.202Z,99.92
2019-02-10T05:38:59.471Z,99.40
2019-02-10T05:39:59.463Z,98.83
2019-02-10T05:40:59.450Z,97.97
2019-02-10T05:41:59.440Z,97.78
2019-02-10T05:42:59.442Z,97.97
2019-02-10T05:43:59.443Z,97.41
2019-02-10T05:44:59.447Z,96.65
2019-02-10T05:45:59.411Z,96.41
2019-02-10T05:46:59.406Z,95.94
2019-02-10T05:47:59.402Z,94.32
2019-02-10T05:48:59.394Z,93.32
2019-02-10T05:49:59.380Z,91.32
2019-02-10T05:50:59.384Z,90.42
2019-02-10T05:51:59.362Z,89.08
2019-02-10T05:52:59.359Z,88.99
2019-02-10T05:53:59.352Z,87.94
2019-02-10T05:54:59.349Z,86.94
2019-02-10T05:55:59.335Z,86.84
2019-02-10T05:56:59.328Z,86.84
2019-02-10T05:57:59.328Z,85.32
2019-02-10T05:58:59.323Z,84.84
2019-02-10T05:59:59.312Z,85.32
2019-02-10T06:00:59.311Z,85.13
2019-02-10T06:01:59.289Z,85.51
2019-02-10T06:02:59.284Z,85.60
2019-02-10T06:03:59.291Z,85.32
2019-02-10T06:04:59.291Z,85.64
2019-02-10T06:05:59.261Z,85.46
2019-02-10T06:06:59.254Z,85.60
2019-02-10T06:07:59.255Z,85.89
2019-02-10T06:08:59.256Z,85.64
2019-02-10T06:09:59.240Z,84.88
2019-02-10T06:10:59.242Z,84.98
2019-02-10T06:11:59.230Z,84.88
2019-02-10T06:12:59.228Z,84.60
2019-02-10T06:13:59.206Z,84.31
2019-02-10T06:14:59.226Z,83.55
2019-02-10T06:15:59.191Z,83.55
2019-02-10T06:16:59.189Z,83.45
2019-02-10T06:17:59.185Z,82.45
2019-02-10T06:18:59.171Z,82.07
2019-02-10T06:19:59.174Z,81.78
2019-02-10T06:20:59.152Z,82.26
2019-02-10T06:21:59.189Z,82.17
2019-02-10T06:22:59.149Z,82.50
2019-02-10T06:23:59.141Z,83.02
2019-02-10T06:24:59.144Z,82.17
2019-02-10T06:25:59.135Z,80.92
2019-02-10T06:26:59.120Z,80.83
2019-02-10T06:27:59.125Z,80.92
2019-02-10T06:28:59.129Z,80.92
2019-02-10T06:29:59.108Z,80.54
2019-02-10T06:30:59.101Z,80.35
2019-02-10T06:31:59.092Z,81.21
2019-02-10T06:32:59.082Z,80.92
2019-02-10T06:33:59.078Z,80.26
2019-02-10T06:34:59.071Z,80.92
2019-02-10T06:35:59.105Z,81.02
2019-02-10T06:36:59.059Z,79.97
2019-02-10T06:37:59.055Z,79.02
2019-02-10T06:38:59.047Z,79.02
2019-02-10T06:39:59.049Z,79.49
2019-02-10T06:40:59.035Z,79.68
2019-02-10T06:41:59.034Z,78.92
2019-02-10T06:42:59.034Z,78.44
2019-02-10T06:43:59.036Z,78.54
2019-02-10T06:44:59.027Z,78.35
2019-02-10T06:45:59.003Z,78.73
2019-02-10T06:46:58.998Z,78.73
2019-02-10T06:47:58.991Z,78.64
2019-02-10T06:48:58.982Z,78.16
2019-02-10T06:49:58.973Z,77.40
2019-02-10T06:50:58.984Z,77.49
2019-02-10T06:51:58.973Z,76.86
2019-02-10T06:52:58.977Z,77.11
2019-02-10T06:53:58.950Z,76.96
2019-02-10T06:54:58.949Z,77.15
2019-02-10T06:55:58.941Z,75.72
2019-02-10T06:56:58.939Z,76.01
2019-02-10T06:57:58.933Z,75.72
2019-02-10T06:58:58.945Z,76.29
2019-02-10T06:59:58.913Z,76.01
2019-02-10T07:00:58.912Z,75.24
2019-02-10T07:01:58.909Z,75.53
2019-02-10T07:02:58.897Z,75.62
2019-02-10T07:03:58.918Z,75.91
2019-02-10T07:04:58.892Z,75.53
2019-02-10T07:05:58.900Z,75.34
2019-02-10T07:06:58.885Z,75.43
2019-02-10T07:07:58.878Z,75.72
2019-02-10T07:08:58.883Z,75.15
2019-02-10T07:09:58.861Z,75.15
2019-02-10T07:10:58.854Z,75.24
2019-02-10T07:11:58.847Z,74.57
2019-02-10T07:12:58.839Z,74.77
2019-02-10T07:13:58.833Z,73.91
2019-02-10T07:14:58.823Z,74.10
2019-02-10T07:15:58.831Z,74.29
2019-02-10T07:16:58.809Z,74.77
2019-02-10T07:17:58.809Z,74.10
2019-02-10T07:18:58.806Z,74.01
2019-02-10T07:19:58.799Z,73.47
2019-02-10T07:20:58.794Z,73.66
2019-02-10T07:21:58.787Z,73.33
2019-02-10T07:22:58.786Z,72.61
2019-02-10T07:23:58.778Z,72.80
2019-02-10T07:24:58.781Z,72.80
2019-02-10T07:25:58.765Z,73.08
2019-02-10T07:26:58.753Z,72.99
2019-02-10T07:27:58.750Z,72.71
2019-02-10T07:28:58.753Z,72.51
2019-02-10T07:29:58.737Z,72.99
2019-02-10T07:30:58.741Z,72.71
2019-02-10T07:31:58.745Z,72.61
2019-02-10T07:32:58.740Z,72.80
2019-02-10T07:33:58.757Z,72.61
2019-02-10T07:34:58.709Z,72.61
2019-02-10T07:35:58.728Z,73.66
2019-02-10T07:36:58.719Z,72.80
2019-02-10T07:37:58.702Z,73.18
2019-02-10T07:38:58.692Z,73.37
2019-02-10T07:39:58.694Z,73.08
2019-02-10T07:40:58.676Z,73.18
2019-02-10T07:41:58.675Z,73.08
2019-02-10T07:42:58.665Z,72.51
2019-02-10T07:43:58.670Z,72.61
2019-02-10T07:44:58.663Z,72.45
2019-02-10T07:45:58.656Z,72.42
2019-02-10T07:46:58.647Z,72.80
2019-02-10T07:47:58.650Z,72.55
2019-02-10T07:48:58.643Z,72.36
2019-02-10T07:49:58.635Z,71.98
2019-02-10T07:50:58.630Z,71.98
2019-02-10T07:51:58.624Z,72.07
2019-02-10T07:52:58.608Z,72.17
2019-02-10T07:53:58.613Z,71.69
2019-02-10T07:54:58.610Z,71.69
2019-02-10T07:55:58.599Z,71.50
2019-02-10T07:56:58.597Z,71.41
2019-02-10T07:57:58.597Z,70.36
2019-02-10T07:58:58.588Z,70.45
2019-02-10T07:59:58.577Z,70.16
2019-02-10T08:00:58.577Z,70.45
2019-02-10T08:01:58.561Z,70.64
2019-02-10T08:02:58.561Z,70.26
2019-02-10T08:03:58.571Z,69.68
2019-02-10T08:04:58.545Z,69.31
2019-02-10T08:05:59.785Z,69.78
2019-02-10T08:06:58.548Z,70.36
2019-02-10T08:07:58.534Z,70.07
2019-02-10T08:08:58.529Z,69.87
2019-02-10T08:09:58.523Z,70.07
2019-02-10T08:10:58.523Z,70.26
2019-02-10T08:11:58.519Z,70.45
2019-02-10T08:12:58.517Z,69.78
2019-02-10T08:13:58.511Z,69.31
2019-02-10T08:14:58.496Z,69.21
2019-02-10T08:15:58.537Z,69.21
2019-02-10T08:16:58.490Z,69.31
2019-02-10T08:17:58.495Z,68.92
2019-02-10T08:18:58.484Z,69.11
2019-02-10T08:19:58.478Z,68.82
2019-02-10T08:20:58.470Z,68.82
2019-02-10T08:21:58.467Z,68.73
2019-02-10T08:22:58.478Z,69.11
2019-02-10T08:23:58.471Z,68.73
2019-02-10T08:24:58.444Z,67.87
2019-02-10T08:25:58.448Z,68.44
2019-02-10T08:26:58.448Z,67.81
2019-02-10T08:27:58.432Z,67.97
2019-02-10T08:28:58.442Z,67.77
2019-02-10T08:29:58.435Z,67.81
2019-02-10T08:30:58.415Z,67.05
2019-02-10T08:31:58.430Z,66.66
2019-02-10T08:32:58.406Z,66.76
2019-02-10T08:33:58.403Z,66.28
2019-02-10T08:34:58.400Z,66.66
2019-02-10T08:35:58.416Z,66.85
2019-02-10T08:36:58.411Z,66.76
2019-02-10T08:37:58.394Z,66.19
2019-02-10T08:38:58.419Z,66.28
2019-02-10T08:39:58.414Z,66.09
2019-02-10T08:40:58.403Z,65.80
2019-02-10T08:41:58.377Z,65.71
2019-02-10T08:42:58.391Z,66.00
2019-02-10T08:43:58.367Z,65.52
2019-02-10T08:44:58.358Z,65.61
2019-02-10T08:45:58.347Z,65.64
2019-02-10T08:46:58.354Z,65.74
2019-02-10T08:47:58.332Z,65.45
2019-02-10T08:48:58.369Z,64.88
2019-02-10T08:49:58.334Z,65.17
2019-02-10T08:50:58.339Z,65.17
2019-02-10T08:51:58.325Z,64.88
2019-02-10T08:52:58.326Z,64.88
2019-02-10T08:53:58.335Z,65.07
2019-02-10T08:54:58.312Z,64.98
2019-02-10T08:55:58.300Z,65.07
2019-02-10T08:56:58.297Z,65.07
2019-02-10T08:57:58.382Z,64.98
2019-02-10T08:58:58.325Z,64.31
2019-02-10T08:59:58.294Z,64.50
2019-02-10T09:00:58.297Z,64.31
2019-02-10T09:01:58.278Z,64.59
2019-02-10T09:03:06.931Z,64.50
2019-02-10T09:05:02.772Z,64.12
2019-02-10T09:06:02.755Z,64.05
2019-02-10T09:07:02.748Z,64.62
2019-02-10T09:08:02.738Z,64.05
2019-02-10T09:09:02.908Z,64.25
2019-02-10T09:10:02.727Z,63.67
2019-02-10T09:11:02.728Z,63.86
2019-02-10T09:12:02.721Z,63.48
2019-02-10T09:13:02.713Z,63.86
2019-02-10T09:14:02.714Z,63.67
2019-02-10T09:15:02.707Z,63.76
2019-02-10T09:16:02.707Z,63.76
2019-02-10T09:17:02.695Z,63.67
2019-02-10T09:18:02.697Z,63.67
2019-02-10T09:19:02.697Z,63.39
2019-02-10T09:20:02.689Z,63.76
2019-02-10T09:21:02.725Z,63.76
2019-02-10T09:22:02.683Z,63.86
2019-02-10T09:23:02.671Z,63.86
2019-02-10T09:24:02.678Z,63.67
2019-02-10T09:25:02.679Z,63.29
2019-02-10T09:26:02.668Z,63.76
2019-02-10T09:27:02.654Z,63.57
2019-02-10T09:28:02.748Z,63.57
2019-02-10T09:29:02.657Z,62.90
2019-02-10T09:30:02.647Z,63.10
2019-02-10T09:31:02.690Z,63.76
2019-02-10T09:32:02.635Z,63.39
2019-02-10T09:33:02.641Z,63.39
2019-02-10T09:34:02.718Z,62.81
2019-02-10T09:35:02.625Z,63.00
2019-02-10T09:36:02.623Z,62.94
2019-02-10T09:37:02.721Z,62.62
2019-02-10T09:38:02.847Z,62.90
2019-02-10T09:39:10.408Z,62.52
2019-02-10T09:40:02.625Z,62.27
2019-02-10T09:41:02.609Z,62.55
2019-02-10T09:42:02.602Z,62.46
2019-02-10T09:43:02.600Z,62.17
2019-02-10T09:44:02.676Z,61.98
2019-02-10T09:45:02.656Z,61.60
2019-02-10T09:46:02.597Z,61.60
2019-02-10T09:47:02.593Z,61.79
2019-02-10T09:48:02.615Z,61.98
2019-02-10T09:49:02.610Z,61.69
2019-02-10T09:50:02.645Z,61.51
2019-02-10T09:51:02.601Z,61.79
2019-02-10T09:52:02.600Z,61.69
2019-02-10T09:53:02.596Z,61.79
2019-02-10T09:54:02.601Z,61.79
2019-02-10T09:55:02.581Z,60.74
2019-02-10T09:56:02.554Z,60.93
2019-02-10T09:57:02.564Z,61.02
2019-02-10T09:58:02.543Z,60.55
2019-02-10T09:59:02.568Z,60.74
2019-02-10T10:00:02.591Z,60.35
2019-02-10T10:01:02.618Z,60.29
2019-02-10T10:02:02.559Z,60.67
2019-02-10T10:03:02.538Z,60.29
2019-02-10T10:04:02.531Z,59.91
2019-02-10T10:05:02.546Z,60.10
2019-02-10T10:06:02.527Z,60.10
2019-02-10T10:07:02.602Z,60.29
2019-02-10T10:08:02.542Z,60.10
2019-02-10T10:09:02.673Z,60.19
2019-02-10T10:10:02.583Z,60.00
2019-02-10T10:11:02.625Z,60.00
2019-02-10T10:12:02.525Z,60.10
2019-02-10T10:13:02.516Z,60.10
2019-02-10T10:14:02.495Z,60.10
2019-02-10T10:15:02.486Z,60.10
2019-02-10T10:16:02.485Z,59.81
2019-02-10T10:17:02.483Z,60.67
2019-02-10T10:18:02.479Z,60.67
2019-02-10T10:19:02.512Z,61.05
2019-02-10T10:20:02.489Z,61.54
2019-02-10T10:21:02.484Z,61.34
2019-02-10T10:22:02.470Z,61.34
2019-02-10T10:23:02.481Z,60.96
2019-02-10T10:24:02.463Z,60.96
2019-02-10T10:25:02.456Z,60.64
2019-02-10T10:26:02.457Z,61.02
2019-02-10T10:27:02.455Z,61.31
2019-02-10T10:28:02.450Z,61.79
2019-02-10T10:29:02.531Z,61.88
2019-02-10T10:30:02.449Z,62.37
2019-02-10T10:31:02.438Z,63.03
2019-02-10T10:32:02.442Z,62.94
2019-02-10T10:33:02.428Z,63.23
2019-02-10T10:34:02.430Z,63.42
2019-02-10T10:35:02.608Z,63.23
2019-02-10T10:36:02.421Z,63.89
2019-02-10T10:37:02.426Z,63.80
2019-02-10T10:38:02.459Z,64.47
2019-02-10T10:39:02.413Z,64.95
2019-02-10T10:40:02.414Z,65.71
2019-02-10T10:41:02.427Z,65.71
2019-02-10T10:42:02.422Z,66.19
2019-02-10T10:43:02.431Z,66.28
2019-02-10T10:44:02.396Z,66.57
2019-02-10T10:45:02.393Z,66.86
2019-02-10T10:46:02.405Z,67.34
2019-02-10T10:47:02.381Z,67.63
2019-02-10T10:48:02.399Z,66.86
2019-02-10T10:49:02.425Z,66.67
2019-02-10T10:50:02.417Z,66.28
2019-02-10T10:51:02.431Z,66.38
2019-02-10T10:52:02.432Z,65.90
2019-02-10T10:53:02.441Z,65.61
2019-02-10T10:54:02.371Z,65.71
2019-02-10T10:55:02.387Z,65.71
2019-02-10T10:56:02.381Z,65.71
2019-02-10T10:57:02.355Z,65.52
2019-02-10T10:58:02.361Z,65.04
2019-02-10T10:59:02.625Z,64.37
2019-02-10T11:00:02.810Z,64.66
2019-02-10T11:01:02.352Z,64.37
2019-02-10T11:02:02.370Z,64.47
2019-02-10T11:03:02.370Z,64.37
2019-02-10T11:04:02.328Z,63.99
2019-02-10T11:05:02.401Z,63.80
2019-02-10T11:06:02.326Z,63.89
2019-02-10T11:07:02.333Z,63.70
2019-02-10T11:08:02.347Z,63.60
2019-02-10T11:09:02.325Z,63.70
2019-02-10T11:10:02.368Z,63.32
2019-02-10T11:11:02.339Z,62.94
2019-02-10T11:12:02.343Z,62.74
2019-02-10T11:13:02.349Z,62.94
2019-02-10T11:14:02.338Z,62.84
2019-02-10T11:15:02.390Z,62.74
2019-02-10T11:16:02.320Z,62.55
2019-02-10T11:17:02.334Z,62.46
2019-02-10T11:18:02.494Z,62.65
2019-02-10T11:19:02.339Z,62.94
2019-02-10T11:20:02.289Z,63.03
2019-02-10T11:21:02.306Z,62.84
2019-02-10T11:22:02.325Z,63.70
2019-02-10T11:23:02.291Z,63.99
2019-02-10T11:24:02.288Z,63.70
2019-02-10T11:25:02.252Z,64.09
2019-02-10T11:26:02.253Z,65.04
2019-02-10T11:27:02.247Z,65.61
2019-02-10T11:28:02.271Z,65.61
2019-02-10T11:29:02.306Z,66.57
2019-02-10T11:30:03.982Z,66.86
2019-02-10T11:31:02.276Z,66.96
2019-02-10T11:32:02.238Z,67.43
2019-02-10T11:33:02.264Z,67.24
2019-02-10T11:34:02.263Z,67.40
2019-02-10T11:35:02.252Z,67.02
2019-02-10T11:36:02.216Z,66.76
2019-02-10T11:37:02.611Z,67.59
2019-02-10T11:38:02.233Z,68.16
2019-02-10T11:39:02.238Z,69.21
2019-02-10T11:40:02.253Z,69.89
2019-02-10T11:41:02.227Z,70.17
2019-02-10T11:42:02.348Z,70.27
2019-02-10T11:43:02.215Z,70.56
2019-02-10T11:44:02.240Z,71.22
2019-02-10T11:45:02.208Z,71.22
2019-02-10T11:46:02.185Z,70.94
2019-02-10T11:47:02.217Z,70.46
2019-02-10T11:48:02.233Z,71.22
2019-02-10T11:49:02.194Z,72.18
2019-02-10T11:50:02.199Z,72.28
2019-02-10T11:51:02.205Z,72.08
2019-02-10T11:52:02.342Z,72.08
2019-02-10T11:53:02.182Z,72.75
2019-02-10T11:54:02.194Z,72.47
2019-02-10T11:55:02.185Z,72.81
2019-02-10T11:56:02.361Z,72.75
2019-02-10T11:57:02.182Z,72.53
2019-02-10T11:58:02.153Z,73.19
2019-02-10T11:59:02.169Z,73.48
2019-02-10T12:00:02.151Z,74.34
2019-02-10T12:01:02.161Z,75.01
2019-02-10T12:02:02.165Z,74.82
2019-02-10T12:03:02.152Z,75.39
2019-02-10T12:04:02.178Z,75.49
2019-02-10T12:05:02.133Z,75.68
2019-02-10T12:06:02.117Z,75.87
2019-02-10T12:07:02.132Z,75.10
2019-02-10T12:08:02.107Z,75.49
2019-02-10T12:09:02.125Z,76.54
2019-02-10T12:10:02.141Z,77.11
2019-02-10T12:11:02.097Z,77.78
2019-02-10T12:12:02.132Z,77.84
2019-02-10T12:13:02.092Z,78.60
2019-02-10T12:14:02.099Z,78.51
2019-02-10T12:15:02.106Z,79.17
2019-02-10T12:16:02.122Z,80.41
2019-02-10T12:17:02.078Z,80.90
2019-02-10T12:18:02.055Z,80.99
2019-02-10T12:19:02.079Z,81.18
2019-02-10T12:20:02.067Z,81.66
2019-02-10T12:21:02.061Z,83.00
2019-02-10T12:22:02.053Z,84.58
2019-02-10T12:23:02.104Z,85.82
2019-02-10T12:24:02.045Z,85.82
2019-02-10T12:25:02.190Z,86.87
2019-02-10T12:26:02.144Z,86.58
2019-02-10T12:27:02.012Z,87.15
2019-02-10T12:28:02.223Z,87.25
2019-02-10T12:29:02.314Z,88.20
2019-02-10T12:30:03.205Z,89.50
2019-02-10T12:31:02.227Z,90.26
2019-02-10T12:32:02.634Z,91.41
2019-02-10T12:33:02.222Z,91.02
2019-02-10T12:34:02.134Z,92.36
2019-02-10T12:35:02.095Z,92.07
2019-02-10T12:36:01.970Z,92.83
2019-02-10T12:37:01.963Z,93.98
2019-02-10T12:38:02.078Z,94.17
2019-02-10T12:39:02.009Z,94.93
2019-02-10T12:40:01.970Z,94.89
2019-02-10T12:41:01.946Z,94.93
2019-02-10T12:42:01.957Z,93.84
2019-02-10T12:43:02.049Z,94.22
2019-02-10T12:44:01.965Z,95.46
2019-02-10T12:45:01.936Z,96.41
2019-02-10T12:46:01.927Z,96.56
2019-02-10T12:47:01.949Z,96.41
2019-02-10T12:48:02.082Z,96.70
2019-02-10T12:49:01.954Z,97.27
2019-02-10T12:50:01.901Z,96.70
2019-02-10T12:51:01.947Z,96.61
2019-02-10T12:52:01.926Z,97.75
2019-02-10T12:53:01.882Z,96.89
2019-02-10T12:54:01.876Z,96.80
2019-02-10T12:55:01.891Z,96.70
2019-02-10T12:56:01.918Z,96.89
2019-02-10T12:57:01.860Z,96.89
2019-02-10T12:58:01.888Z,97.27
2019-02-10T12:59:01.895Z,96.89
2019-02-10T13:00:01.878Z,96.98
2019-02-10T13:01:01.862Z,97.17
2019-02-10T13:02:01.830Z,97.37
2019-02-10T13:03:01.851Z,96.41
2019-02-10T13:04:01.885Z,96.03
2019-02-10T13:05:01.864Z,94.60
2019-02-10T13:06:01.812Z,94.51
2019-02-10T13:07:01.817Z,94.32
2019-02-10T13:08:01.841Z,93.65
2019-02-10T13:09:01.836Z,94.27